Silt, CO (81652)

2:26 PM MDT on September 04, 2015 (GMT -0600)
Cactus Valley, Greg and Nella | | Change Station
CLOSE
Current Station
Personal Weather Station
Location: Rifle, CO
Elevation: 5449 ft
Nearby Weather Stations

Elev 5449 ft 39.55 °N, 107.73 °W | Updated 4 minutes ago

Overcast
Overcast
74.1 °F
Feels Like 77 °F
N
5.0
Wind Variable Wind from SE
Gusts 6.0 mph

Today
High -- | Low -- °F
--% Chance of Precip.
Yesterday
High -- | Low -- °F
Precip. -- in
6:41 AM 7:37 PM
Waning Gibbous, 56% visible
Pressure 29.90 in
Visibility 10.0 miles
Clouds Overcast 11000 ft
Heat Index 77 °F
Dew Point 54 °F
Humidity 50%
Rainfall 0.00 in
Snow Depth Not available.
UV 3 out of 12
Pollen 9.00 out of 12
Air Quality Not available.
Flu Activity Not available.
METAR KRIL 041953Z AUTO 05005KT 10SM OVC110 22/12 A3006 RMK AO2 SLP124 T02220117
Pressure 29.90 in
Visibility 10.0 miles
Clouds Overcast 11000 ft
Heat Index 77 °F
Dew Point 54 °F
Humidity 50%
Rainfall 0.00 in
Snow Depth Not available.
UV 3 out of 12
Pollen 9.00 out of 12
Air Quality Not available.
Flu Activity Not available.
METAR KRIL 041953Z AUTO 05005KT 10SM OVC110 22/12 A3006 RMK AO2 SLP124 T02220117

10-Day Weather Forecast

×

Almanac

Astronomy

Sep. 04, 2015 Rise Set
Actual Time
Civil Twilight
Nautical Twilight
Astronomical Twilight
Moon
Length of Visible Light
Length of Day
Tomorrow will be .
, % of the Moon is Illuminated

Today's Extremes

State Highs State Lows

Community

WunderPhotos

Upload Photos

1,852,272 photos uploaded!

WunderBlogs® & News

Nearby

Air Quality

  Air Quality AQ Index Pollutant
Not available.

Snow Depth

Station Depth Elevation

Earthquake Activity

City Distance Mag. Time & Date
Minimum magnitude displayed is 2.5.

Coastal Water Temperatures

Place Temperature

Stations

Nearby Weather Stations

Station Location Temp. Windchill Dew Point Humidity Wind Precip. Elev Updated Type